Whiteman Air Force Base
KSZL : rendu visible

Aérodrome :











RETROUVEZ-NOUS SUR...

 
LOGIN :

S'inscrire | Disclaimer

   EN    FR    IT 

 









Légende :    VFR   VFR Marginal   IFR   IFR Intensif   IFR Très Intensif
Visi : 
Plafond : 
>= 8 km
>= 3000ft
5 à 8 km
1000 à 3000 ft
1500m à 5 km
500 à 1000 ft
800 à 1500m
200 à 500 ft
< 800m
< 200 ft
Symboles :   Orages  Brouillard  Fortes neiges  Fortes précipitations  Vent > 20 kt







- Altitude de l'aérodrome : 870 ft


KSZL - Whiteman Air Force Base

DERNIER METAR :
  • 251156Z 11006KT 10SM OVC013 19/18 A2990 RMK AO2A SLP122 T01910176 10200 20191 57018 FZRANO $

METARs EXPIRÉS :
  • 251136Z 11006KT 10SM OVC014 19/18 A2991 RMK AO2A SLP126 FZRANO $
  • 251056Z 12005KT 10SM OVC015 19/17 A2991 RMK AO2A SLP126 T01930174 FZRANO $
  • 250956Z 10004KT 10SM OVC017 19/17 A2993 RMK AO2A SLP133 T01930172 FZRANO $
  • 250936Z 10005KT 10SM OVC017 19/17 A2993 RMK AO2A SLP133 FZRANO $
  • 250856Z 11004KT 10SM OVC020 20/17 A2995 RMK AO2A SLP139 T01950173 55014 FZRANO $

TAF TAF KSZL
Valide du 25 à 11h jusqu'au 26 à 17h UTC


251100Z 2511/2617 10009KT 9999 BKN015 QNH2990INS
BECMG 2518/2519 10009KT 8000 -SHRA BKN020 QNH2990INS
TEMPO 2522/2602 6000 -TSRA BKN010CB
BECMG 2602/2603 10009KT 9999 NSW BKN020 QNH2987INS TX23/2520Z TN18/2611Z
Pas de NOTAMs connus pour ce terrain.



MET'MAP, la Météo Aéronautique d'un coup d'oeil ! - Copyright ORBIFLY Décembre 2007 - Disclaimer

ORBIFLY MET'MAP TEAM :

Programmation & Développement : Alexandra Zaïnal
Conception & Développement : Baudouin d'Aumeries
Co-Programmation & Développement : Marc-Olivier Méhu
Soutien technique & logistique : Manuel Goepfert

Contact : metmap@orbifly.com




SOURCES & CREDITS :

   NOAA       Earth
Advisory